FW5188 Weather Reports


Display with metric or nautical units.
time (UTC)temp
F
wind
direction
speed
MPH
gust
MPH
rain 1hr
in
rain 24hr
in
rain mn
in
humidity
%
barometer
mb
20210923034620 56 69 9.0 15.0 0.00 0.00 0.00 82 1017.3
20210923033045 56 26 6.0 15.0 0.00 0.00 0.00 81 1017.3
20210923031625 57 40 8.0 14.0 0.00 0.00 0.00 81 1017.1
20210923030100 57 36 11.0 18.0 0.00 0.00 0.00 80 1017.2
20210923024553 57 65 8.0 15.0 0.00 0.00 0.00 79 1017.4
20210923023044 58 82 14.0 21.0 0.00 0.00 0.00 78 1017.3
20210923021536 58 20 8.0 15.0 0.00 0.00 0.00 81 1017.2
20210923020030 58 15 6.0 16.0 0.00 0.00 0.00 81 1017.3
20210923014522 59 31 7.0 15.0 0.00 0.01 0.00 80 1017.2
20210923013039 59 57 7.0 14.0 0.00 0.01 0.00 81 1017.2
20210923011538 60 57 5.0 13.0 0.00 0.01 0.00 80 1016.9
20210923010021 60 15 9.0 16.0 0.00 0.01 0.00 79 1016.8
20210923004509 61 25 9.0 16.0 0.00 0.01 0.00 78 1016.6
20210923003007 61 36 7.0 15.0 0.00 0.01 0.00 76 1016.2
20210923001516 62 30 10.0 21.0 0.00 0.01 0.00 74 1016.0
20210923000003 63 53 10.0 18.0 0.00 0.01 0.00 73 1015.7
20210922234504 64 360 12.0 24.0 0.00 0.01 0.00 72 1015.5
20210922233135 65 35 9.0 15.0 0.00 0.01 0.00 74 1015.5
20210922231640 65 28 6.0 10.0 0.00 0.01 0.00 73 1015.5
20210922230149 66 9 9.0 14.0 0.00 0.01 0.00 70 1015.2
20210922224635 67 5 10.0 18.0 0.00 0.01 0.00 67 1015.1
20210922223146 67 19 10.0 20.0 0.00 0.01 0.00 69 1015.0
20210922221610 69 47 6.0 14.0 0.00 0.01 0.00 67 1014.8
20210922220113 68 34 10.0 16.0 0.00 0.01 0.00 66 1014.8
20210922214625 69 350 10.0 24.0 0.00 0.01 0.00 67 1014.7
20210922213146 69 5 10.0 20.0 0.00 0.01 0.00 66 1014.7
20210922211615 69 35 11.0 17.0 0.00 0.01 0.00 67 1014.8
20210922210219 69 322 12.0 19.0 0.00 0.01 0.00 67 1014.7
20210922204607 68 319 12.0 21.0 0.00 0.01 0.00 67 1014.7
20210922203156 68 349 12.0 18.0 0.00 0.01 0.00 70 1014.8
20210922201556 68 15 12.0 23.0 0.00 0.01 0.00 67 1015.0
20210922200134 68 355 8.0 21.0 0.00 0.01 0.00 69 1014.8
20210922194651 68 343 9.0 19.0 0.00 0.01 0.00 72 1015.1
20210922193116 67 335 11.0 16.0 0.00 0.01 0.00 70 1014.9
20210922191600 67 19 13.0 21.0 0.00 0.01 0.00 70 1015.0
20210922190059 66 5 11.0 16.0 0.00 0.01 0.00 75 1015.0
20210922184547 67 18 9.0 17.0 0.00 0.01 0.00 75 1015.1
20210922183057 67 11 10.0 16.0 0.00 0.01 0.00 75 1015.0
20210922181612 67 350 9.0 15.0 0.00 0.01 0.00 75 1015.3
20210922180048 66 334 8.0 15.0 0.00 0.01 0.00 78 1015.2
20210922174701 66 340 6.0 12.0 0.00 0.01 0.00 78 1015.2
20210922173129 66 17 9.0 14.0 0.00 0.01 0.00 79 1015.3
20210922170133 65 360 11.0 15.0 0.00 0.01 0.00 81 1015.5
20210922164557 65 360 7.0 18.0 0.00 0.01 0.00 82 1015.5
20210922163146 65 15 7.0 13.0 0.00 0.01 0.00 84 1015.5
20210922161621 64 360 10.0 15.0 0.00 0.01 0.00 85 1015.6
20210922160049 64 351 6.0 14.0 0.00 0.01 0.00 86 1015.6
20210922154538 63 10 8.0 13.0 0.00 0.01 0.00 88 1015.6
20210922153051 63 53 7.0 14.0 0.00 0.01 0.00 89 1015.4
20210922151548 62 56 9.0 16.0 0.00 0.01 0.00 91 1015.1
20210922150030 62 55 7.0 14.0 0.00 0.01 0.00 92 1015.2
20210922144542 62 57 5.0 13.0 0.00 0.01 0.00 93 1015.4
20210922143035 62 51 6.0 13.0 0.00 0.01 0.00 93 1015.3
20210922141604 61 9 7.0 15.0 0.00 0.01 0.00 93 1015.3
20210922140042 61 60 6.0 16.0 0.00 0.01 0.00 95 1015.0
20210922134528 61 47 8.0 16.0 0.00 0.01 0.00 95 1015.3
20210922133051 61 360 12.0 22.0 0.00 0.01 0.00 95 1015.7
20210922131519 62 26 9.0 16.0 0.00 0.01 0.00 95 1015.2
20210922130021 63 15 9.0 14.0 0.00 0.01 0.00 95 1015.0
20210922124516 63 348 8.0 13.0 0.00 0.01 0.00 95 1014.7
20210922123043 64 355 9.0 18.0 0.00 0.01 0.00 95 1014.3
20210922121504 65 338 8.0 18.0 0.00 0.01 0.00 95 1014.0
20210922120144 68 34 14.0 21.0 0.00 0.01 0.00 94 1013.7
20210922114623 70 29 9.0 14.0 0.00 0.01 0.00 97 1013.1
20210922113118 70 317 10.0 14.0 0.00 0.01 0.00 97 1012.9
20210922111637 71 313 10.0 13.0 0.00 0.01 0.00 98 1012.7
20210922110106 71 279 11.0 15.0 0.00 0.01 0.00 98 1012.6
20210922104548 71 290 6.0 9.0 0.00 0.01 0.00 98 1012.5
20210922103237 71 271 5.0 10.0 0.00 0.01 0.00 98 1012.6
20210922101647 71 267 7.0 10.0 0.00 0.01 0.00 98 1012.4
20210922100118 71 269 5.0 8.0 0.00 0.01 0.00 98 1012.6
20210922094618 71 279 5.0 10.0 0.00 0.01 0.00 98 1012.5
20210922093108 71 255 5.0 8.0 0.00 0.01 0.00 98 1012.6
20210922091638 71 238 4.0 8.0 0.00 0.01 0.00 98 1012.6
20210922090053 71 231 3.0 8.0 0.00 0.01 0.00 98 1012.8
20210922084603 71 238 4.0 8.0 0.00 0.01 0.00 98 1013.0
20210922083050 71 230 5.0 10.0 0.00 0.01 0.00 98 1013.1
20210922081605 71 206 5.0 9.0 0.00 0.01 0.00 98 1013.2
20210922080053 71 225 3.0 8.0 0.00 0.01 0.00 98 1013.3
20210922074542 71 222 5.0 8.0 0.00 0.01 0.00 98 1013.6
20210922073041 71 212 4.0 9.0 0.00 0.01 0.00 98 1013.7
20210922071612 71 209 3.0 10.0 0.00 0.01 0.00 98 1013.9
20210922070110 71 240 4.0 7.0 0.00 0.01 0.00 98 1014.2
20210922064638 71 211 4.0 8.0 0.00 0.01 0.00 98 1014.3
20210922063032 71 202 4.0 8.0 0.00 0.01 0.00 97 1014.4
20210922061533 71 215 4.0 9.0 0.00 0.01 0.00 97 1014.4
20210922060051 71 223 3.0 6.0 0.00 0.01 0.00 97 1014.6
20210922054534 71 228 4.0 7.0 0.00 0.01 0.00 97 1014.9
20210922053022 71 199 2.0 7.0 0.00 0.01 0.00 97 1014.9
20210922051516 71 195 3.0 7.0 0.00 0.01 0.00 97 1015.0
20210922050011 71 196 1.0 6.0 0.00 0.01 0.00 97 1015.3
20210922044508 71 186 2.0 5.0 0.00 0.01 0.01 97 1015.5
20210922043007 71 192 3.0 8.0 0.00 0.01 0.01 97 1015.5
20210922041507 72 178 2.0 5.0 0.00 0.01 0.01 97 1015.6
20210922040010 72 198 1.0 5.0 0.00 0.01 0.01 97 1015.8